Latest Weather Observations for Norseman Airport

IDW60801

Issued at 8:02 am WST Saturday 29 August 2015 (issued every 30 minutes, with the page automatically refreshed every 10 minutes)

About weather observations | Map of weather stations | Latest weather observations for WA | Other Formats
Station Details ID: 012009 Name: NORSEMAN AERO Lat: -32.21 Lon: 121.75 Height: 262.5 m
Data from the previous 72 hours. | See also: Recent months at Norseman Airport
Date/Time
WST
Temp
°C
App
Temp
°C
Dew
Point
Rel
Hum
%
Delta-T
°C
Wind Press
QNH
hPa
Press
MSL
hPa
Rain
since 9 am
mm
Dir
 
Spd
km/h
Gust
km/h
Spd
kts
Gust
kts
29/08:00am 13.6 9.7 1.3 43 5.3 NNE 11 15 6 8 1016.7 1016.7 0.0
29/07:30am 12.8 9.3 1.2 45 5.0 NNE 9 13 5 7 1016.5 1016.5 0.0
29/07:00am 11.3 7.4 1.3 50 4.3 NE 11 13 6 7 1016.4 1016.4 0.0
29/06:30am 8.6 4.5 -0.4 53 3.6 ENE 11 13 6 7 1016.1 1016.1 0.0
29/06:00am 9.2 5.0 -0.7 50 3.9 NE 11 13 6 7 1016.0 1016.0 0.0
29/05:30am 9.7 5.2 -0.5 49 4.1 NE 13 15 7 8 1016.0 1016.0 0.0
29/05:00am 9.7 5.2 -0.2 50 4.0 NE 13 15 7 8 1016.0 1016.0 0.0
29/04:30am 10.1 6.3 -0.4 48 4.3 NE 9 11 5 6 1016.0 1016.0 0.0
29/04:00am 10.3 5.8 -0.2 48 4.3 NE 13 13 7 7 1016.0 1016.0 0.0
29/03:30am 10.8 6.7 0.0 47 4.4 NE 11 13 6 7 1016.1 1016.1 0.0
29/03:00am 11.1 7.0 -0.1 46 4.6 NE 11 13 6 7 1016.3 1016.3 0.0
29/02:30am 11.8 7.4 0.3 45 4.8 NE 13 15 7 8 1016.4 1016.4 0.0
29/02:00am 12.6 8.2 0.4 43 5.1 NE 13 17 7 9 1016.6 1016.6 0.0
29/01:30am 12.1 7.8 0.8 46 4.8 NE 13 13 7 7 1016.9 1016.9 0.0
29/01:00am 12.3 9.5 1.9 49 4.5 NNE 6 9 3 5 1017.2 1017.2 0.0
29/12:30am 12.7 8.4 1.1 45 5.0 NNE 13 19 7 10 1017.1 1017.1 0.0
29/12:00am 13.6 10.5 1.3 43 5.3 NE 7 9 4 5 1017.2 1017.2 0.0
 
Date/Time
WST
Temp
°C
App
Temp
°C
Dew
Point
Rel
Hum
%
Delta-T
°C
Wind Press
QNH
hPa
Press
MSL
hPa
Rain
since 9 am
mm
Dir
 
Spd
km/h
Gust
km/h
Spd
kts
Gust
kts
28/11:30pm 14.4 11.2 1.0 40 5.8 NNE 7 7 4 4 1017.3 1017.3 0.0
28/11:00pm 15.7 12.7 1.1 37 6.4 NNE 6 7 3 4 1017.3 1017.3 0.0
28/10:30pm 15.9 12.8 1.6 38 6.4 NNE 7 11 4 6 1017.4 1017.4 0.0
28/10:00pm 16.3 13.6 3.7 43 5.9 N 7 15 4 8 1017.5 1017.6 0.0
28/09:30pm 17.8 13.5 1.3 33 7.4 NE 13 19 7 10 1017.6 1017.7 0.0
28/09:00pm 17.4 13.7 2.6 37 6.8 NNE 11 17 6 9 1017.6 1017.7 0.0
28/08:30pm 17.6 14.7 4.5 42 6.3 NNE 9 15 5 8 1017.4 1017.4 0.0
28/08:00pm 19.5 14.1 1.5 30 8.3 NE 19 24 10 13 1017.1 1017.1 0.0
28/07:30pm 19.3 14.4 1.8 31 8.1 NE 17 20 9 11 1016.9 1016.9 0.0
28/07:00pm 19.7 15.1 1.7 30 8.3 ENE 15 20 8 11 1016.6 1016.6 0.0
28/06:30pm 20.1 15.6 2.0 30 8.4 ENE 15 19 8 10 1016.4 1016.4 0.0
28/06:00pm 20.1 15.6 2.0 30 8.4 NE 15 19 8 10 1016.1 1016.1 0.0
28/05:30pm 21.0 16.5 2.3 29 8.8 NE 15 24 8 13 1016.0 1016.0 0.0
28/05:00pm 22.8 16.9 1.8 25 10.0 NE 22 30 12 16 1015.7 1015.7 0.0
28/04:30pm 23.5 18.0 1.8 24 10.3 NNE 20 32 11 17 1015.8 1015.8 0.0
28/04:00pm 23.9 17.7 2.1 24 10.5 NNE 24 32 13 17 1015.8 1015.8 0.0
28/03:30pm 24.5 18.6 2.0 23 10.8 NNE 22 35 12 19 1015.8 1015.8 0.0
28/03:00pm 23.7 17.8 1.4 23 10.6 NNE 22 32 12 17 1016.0 1016.0 0.0
28/02:30pm 23.6 17.4 1.9 24 10.4 N 24 35 13 19 1016.3 1016.3 0.0
28/02:00pm 23.9 18.2 2.7 25 10.3 NNE 22 30 12 16 1016.6 1016.6 0.0
28/01:30pm 22.6 15.8 1.0 24 10.1 N 26 33 14 18 1016.8 1016.8 0.0
28/01:00pm 22.4 15.7 1.4 25 9.8 NNE 26 33 14 18 1017.4 1017.4 0.0
28/12:30pm 21.2 14.5 1.5 27 9.2 NNE 26 33 14 18 1018.0 1018.1 0.0
28/12:00pm 20.3 13.2 1.2 28 8.8 NNE 28 39 15 21 1018.4 1018.5 0.0
28/11:30am 19.0 11.0 0.6 29 8.3 N 32 39 17 21 1019.3 1019.3 0.0
28/11:00am 18.6 11.3 0.2 29 8.2 N 28 35 15 19 1019.6 1019.6 0.0
28/10:30am 16.9 9.2 -0.3 31 7.5 NNE 30 39 16 21 1019.8 1019.8 0.0
28/10:00am 17.3 9.1 0.5 32 7.4 N 33 41 18 22 1020.1 1020.1 0.0
28/09:30am 15.5 7.8 0.1 35 6.6 NNE 30 39 16 21 1020.5 1020.5 0.0
28/09:00am 14.7 6.8 0.9 39 6.0 NNE 32 43 17 23 1020.8 1020.9 0.0
28/08:30am 13.4 6.3 1.1 43 5.3 NNE 28 37 15 20 1021.0 1021.1 0.0
28/08:00am 11.4 6.4 1.4 50 4.3 NNE 17 22 9 12 1021.2 1021.3 0.0
28/07:30am 10.2 4.8 1.1 53 3.8 NE 19 22 10 12 1021.0 1021.1 0.0
28/07:00am 10.0 5.0 1.4 55 3.6 NE 17 20 9 11 1021.0 1021.1 0.0
28/06:30am 9.9 4.8 1.0 54 3.7 NE 17 22 9 12 1020.7 1020.8 0.0
28/06:00am 9.9 4.9 1.3 55 3.6 NE 17 20 9 11 1020.6 1020.6 0.0
28/05:30am 10.1 5.4 1.2 54 3.7 NE 15 19 8 10 1020.5 1020.5 0.0
28/05:00am 10.5 4.9 1.1 52 3.9 NE 20 28 11 15 1020.1 1020.1 0.0
28/04:30am 10.4 5.4 1.2 53 3.9 NE 17 22 9 12 1020.3 1020.3 0.0
28/04:00am 10.3 5.3 1.2 53 3.8 NE 17 20 9 11 1019.9 1019.9 0.0
28/03:30am 10.5 5.4 0.8 51 4.1 NE 17 24 9 13 1019.8 1019.8 0.0
28/03:00am 11.1 5.4 0.8 49 4.3 NE 20 28 11 15 1020.2 1020.2 0.0
28/02:30am 10.1 5.1 1.5 55 3.6 NNE 17 22 9 12 1020.5 1020.5 0.0
28/02:00am 10.3 5.6 1.2 53 3.8 NNE 15 19 8 10 1020.7 1020.8 0.0
28/01:30am 10.6 5.6 1.2 52 4.0 NNE 17 20 9 11 1021.0 1021.1 0.0
28/01:00am 11.0 6.0 1.3 51 4.1 NNE 17 22 9 12 1021.3 1021.4 0.0
28/12:30am 11.0 6.0 1.3 51 4.1 NE 17 20 9 11 1021.2 1021.3 0.0
28/12:00am 12.2 6.8 1.2 47 4.7 NNE 19 26 10 14 1021.4 1021.5 0.0
 
Date/Time
WST
Temp
°C
App
Temp
°C
Dew
Point
Rel
Hum
%
Delta-T
°C
Wind Press
QNH
hPa
Press
MSL
hPa
Rain
since 9 am
mm
Dir
 
Spd
km/h
Gust
km/h
Spd
kts
Gust
kts
27/11:30pm 12.7 6.3 1.1 45 5.0 NE 24 37 13 20 1020.9 1021.0 0.0
27/11:00pm 12.9 6.5 1.0 44 5.1 ENE 24 35 13 19 1021.1 1021.2 0.0
27/10:30pm 13.0 6.6 1.0 44 5.2 ENE 24 32 13 17 1021.4 1021.5 0.0
27/10:00pm 13.4 7.4 1.1 43 5.3 ENE 22 37 12 20 1021.6 1021.7 0.0
27/09:30pm 13.4 7.8 1.4 44 5.2 ENE 20 30 11 16 1021.8 1021.9 0.0
27/09:00pm 13.6 8.1 1.6 44 5.2 ENE 20 32 11 17 1021.9 1022.0 0.0
27/08:30pm 13.6 8.3 1.6 44 5.3 ENE 19 30 10 16 1021.8 1021.9 0.0
27/08:00pm 14.1 8.8 1.7 43 5.4 ENE 19 26 10 14 1021.8 1021.9 0.0
27/07:30pm 14.6 9.6 1.5 41 5.8 ENE 17 24 9 13 1021.8 1021.9 0.0
27/07:00pm 14.8 9.9 1.7 41 5.8 ENE 17 24 9 13 1021.7 1021.8 0.0
27/06:30pm 15.1 10.8 1.3 39 6.1 ENE 13 17 7 9 1021.6 1021.7 0.0
27/06:00pm 15.7 11.7 0.7 36 6.5 ENE 11 15 6 8 1021.4 1021.5 0.0
27/05:30pm 16.9 12.6 1.0 34 7.1 ENE 13 19 7 10 1021.2 1021.3 0.0
27/05:00pm 17.5 13.3 1.9 35 7.1 NE 13 19 7 10 1021.0 1021.1 0.0
27/04:30pm 18.0 12.0 1.1 32 7.6 NNE 22 28 12 15 1020.8 1020.9 0.0
27/04:00pm 18.9 13.5 1.0 30 8.1 NNE 19 30 10 16 1020.7 1020.8 0.0
27/03:30pm 18.9 13.9 1.4 31 8.0 N 17 26 9 14 1020.8 1020.9 0.0
27/03:00pm 18.3 12.7 1.3 32 7.7 N 20 26 11 14 1020.9 1021.0 0.0
27/02:30pm 18.1 12.7 1.2 32 7.6 NNE 19 26 10 14 1021.0 1021.1 0.0
27/02:00pm 18.4 12.8 1.4 32 7.7 N 20 26 11 14 1021.1 1021.2 0.0
27/01:30pm 18.5 11.7 1.1 31 7.9 N 26 39 14 21 1021.3 1021.4 0.0
27/01:00pm 19.4 12.4 1.9 31 8.1 N 28 33 15 18 1021.5 1021.6 0.0
27/12:30pm 19.0 12.4 2.0 32 7.9 N 26 33 14 18 1022.0 1022.1 0.0
27/12:00pm 17.1 11.6 4.1 42 6.2 NNW 22 30 12 16 1022.6 1022.7 0.0
27/11:30am 16.2 10.4 4.3 45 5.6 N 24 28 13 15 1023.3 1023.3 0.0
27/11:00am 16.4 11.4 4.8 46 5.5 N 20 30 11 16 1023.8 1023.8 0.0
27/10:30am 14.4 8.7 4.7 52 4.6 N 24 30 13 16 1024.0 1024.1 0.0
27/10:00am 13.3 8.5 4.5 55 4.1 N 19 24 10 13 1024.3 1024.4 0.0
27/09:30am 12.5 7.7 4.7 59 3.6 N 19 22 10 12 1024.5 1024.6 0.0
27/09:00am 12.4 6.4 3.6 55 4.0 NNE 24 35 13 19 1024.5 1024.6 0.0
27/08:30am 12.3 7.1 3.8 56 3.9 NNE 20 28 11 15 1024.4 1024.5 0.0
27/08:00am 10.6 6.8 4.1 64 2.9 NNE 13 17 7 9 1024.4 1024.5 0.0
27/07:30am 9.0 6.1 4.6 74 2.0 NNE 9 11 5 6 1024.1 1024.2 0.0
27/07:00am 7.2 4.0 3.1 75 1.7 NNE 9 11 5 6 1023.9 1024.0 0.0
27/06:30am 6.3 3.0 2.2 75 1.7 NE 9 11 5 6 1023.6 1023.6 0.0
27/06:00am 6.6 2.9 2.3 74 1.8 NE 11 13 6 7 1023.3 1023.3 0.0
27/05:30am 6.9 3.6 2.4 73 1.9 NE 9 11 5 6 1022.9 1023.0 0.0
27/05:00am 7.1 3.9 2.8 74 1.8 NE 9 11 5 6 1022.7 1022.8 0.0
27/04:30am 6.7 3.0 2.4 74 1.8 ENE 11 13 6 7 1022.6 1022.7 0.0
27/04:00am 6.5 2.8 2.4 75 1.7 NE 11 13 6 7 1022.5 1022.6 0.0
27/03:30am 5.9 2.1 1.8 75 1.7 E 11 11 6 6 1022.5 1022.6 0.0
27/03:00am 6.6 3.2 1.9 72 1.9 ENE 9 11 5 6 1022.6 1022.7 0.0
27/02:30am 7.5 4.2 2.4 70 2.1 E 9 11 5 6 1022.6 1022.7 0.0
27/02:00am 7.9 4.6 2.6 69 2.2 ENE 9 11 5 6 1022.7 1022.8 0.0
27/01:30am 8.0 5.7 2.7 69 2.3 NE 4 9 2 5 1022.9 1023.0 0.0
27/01:00am 8.7 7.1 2.5 65 2.6 CALM 0 0 0 0 1023.0 1023.1 0.0
27/12:30am 9.4 6.8 3.2 65 2.7 N 6 7 3 4 1023.0 1023.1 0.0
27/12:00am 11.4 8.1 2.4 54 3.9 ENE 9 13 5 7 1023.0 1023.1 0.0
 
Date/Time
WST
Temp
°C
App
Temp
°C
Dew
Point
Rel
Hum
%
Delta-T
°C
Wind Press
QNH
hPa
Press
MSL
hPa
Rain
since 9 am
mm
Dir
 
Spd
km/h
Gust
km/h
Spd
kts
Gust
kts
26/11:30pm 12.0 7.9 2.5 52 4.2 ENE 13 20 7 11 1023.0 1023.1 0.0
26/11:00pm 12.2 8.1 2.4 51 4.3 ENE 13 17 7 9 1023.2 1023.2 0.0
26/10:30pm 12.4 8.4 2.6 51 4.3 ENE 13 20 7 11 1023.3 1023.3 0.0
26/10:00pm 12.0 8.8 3.0 54 4.0 ENE 9 15 5 8 1023.4 1023.4 0.0
26/09:30pm 10.0 7.6 4.4 68 2.5 ESE 6 11 3 6 1023.3 1023.3 0.0
26/09:00pm 8.6 7.2 3.6 71 2.2 CALM 0 0 0 0 1023.4 1023.4 0.0
26/08:30pm 8.9 6.2 3.7 70 2.3 ESE 7 9 4 5 1023.4 1023.4 0.0
26/08:00pm 9.7 8.3 3.4 65 2.8 CALM 0 6 0 3 1023.3 1023.3 0.0
26/07:30pm 10.3 7.2 3.6 63 3.0 ESE 9 11 5 6 1023.3 1023.3 0.0
26/07:00pm 10.6 7.5 3.4 61 3.2 ESE 9 9 5 5 1023.0 1023.1 0.0
26/06:30pm 11.2 8.0 3.3 58 3.5 ESE 9 9 5 5 1023.0 1023.1 0.0
26/06:00pm 11.6 9.8 3.6 58 3.6 E 2 9 1 5 1022.8 1022.9 0.0
26/05:30pm 14.5 11.9 3.3 47 5.1 N 6 7 3 4 1022.6 1022.7 0.0
26/05:00pm 16.0 12.0 2.8 41 6.0 N 13 15 7 8 1022.4 1022.5 0.0
26/04:30pm 16.9 12.0 1.8 36 6.8 N 17 22 9 12 1022.2 1022.3 0.0
26/04:00pm 16.5 11.8 2.9 40 6.3 N 17 20 9 11 1022.1 1022.2 0.0
26/03:30pm 16.0 11.6 2.8 41 6.1 N 15 20 8 11 1022.0 1022.1 0.0
26/03:00pm 16.7 12.1 1.6 36 6.8 N 15 22 8 12 1022.1 1022.2 0.0
26/02:30pm 17.3 12.6 2.9 38 6.7 N 17 22 9 12 1022.3 1022.4 0.0
26/02:00pm 16.3 11.4 2.3 39 6.3 N 17 30 9 16 1022.3 1022.4 0.0
26/01:30pm 16.8 11.7 3.1 40 6.4 NNW 19 24 10 13 1022.6 1022.7 0.0
26/01:00pm 16.6 11.9 3.3 41 6.2 N 17 30 9 16 1023.0 1023.1 0.0
26/12:30pm 16.6 11.5 3.3 41 6.2 N 19 28 10 15 1023.5 1023.5 0.0
26/12:00pm 15.9 10.6 2.0 39 6.2 N 19 30 10 16 1024.0 1024.1 0.0
26/11:30am 15.5 10.9 6.5 55 4.4 N 20 28 11 15 1024.5 1024.6 0.0
26/11:00am 14.1 9.4 7.6 65 3.2 N 22 28 12 15 1024.9 1025.0 0.0
26/10:30am 13.5 9.4 7.9 69 2.8 N 19 22 10 12 1025.4 1025.5 0.0
26/10:00am 12.5 8.4 7.8 73 2.3 N 19 22 10 12 1025.7 1025.8 0.0
26/09:30am 11.1 7.3 7.6 79 1.7 N 17 20 9 11 1025.9 1026.0 0.0
26/09:00am 9.8 5.9 7.1 83 1.3 N 17 20 9 11 1026.2 1026.3 0.0
26/08:30am 8.6 5.6 7.8 95 0.4 N 13 17 7 9 1026.3 1026.4 0.0

Other Formats:

Comma delimited format used in spreadsheet applications
http://www.bom.gov.au/fwo/IDW60801/IDW60801.95642.axf

JavaScript Object Notation format (JSON) in row-major order
http://www.bom.gov.au/fwo/IDW60801/IDW60801.95642.json